createdAt,value
2022-11-26T00:01:00.307Z,14.40
2022-11-26T00:04:06.829Z,14.93
2022-11-26T00:07:12.184Z,16.00
2022-11-26T00:10:23.695Z,13.95
2022-11-26T00:13:30.251Z,18.23
2022-11-26T00:16:35.545Z,15.55
2022-11-26T00:19:40.782Z,14.32
2022-11-26T00:22:47.662Z,14.88
2022-11-26T00:25:57.115Z,14.73
2022-11-26T00:29:03.118Z,14.65
2022-11-26T00:32:09.086Z,16.83
2022-11-26T00:35:14.483Z,14.40
2022-11-26T00:38:20.719Z,15.68
2022-11-26T00:41:30.543Z,12.70
2022-11-26T00:44:35.859Z,14.15
2022-11-26T00:47:41.318Z,14.48
2022-11-26T00:50:48.200Z,18.27
2022-11-26T00:53:54.109Z,13.43
2022-11-26T00:57:01.938Z,13.93
2022-11-26T01:00:16.728Z,14.38
2022-11-26T01:03:21.937Z,16.83
2022-11-26T01:06:31.446Z,14.35
2022-11-26T01:09:36.462Z,15.75
2022-11-26T01:12:44.431Z,14.35
2022-11-26T01:15:49.611Z,14.20
2022-11-26T01:18:55.789Z,15.10
2022-11-26T01:22:00.989Z,17.45
2022-11-26T01:25:06.314Z,13.95
2022-11-26T01:28:16.713Z,13.15
2022-11-26T01:31:22.900Z,14.95
2022-11-26T01:34:28.299Z,15.65
2022-11-26T01:37:33.556Z,15.02
2022-11-26T01:40:42.033Z,11.98
2022-11-26T01:43:51.050Z,13.43
2022-11-26T01:46:56.310Z,19.35
2022-11-26T01:50:16.548Z,15.07
2022-11-26T01:53:24.600Z,16.42
2022-11-26T01:56:34.049Z,14.20
2022-11-26T01:59:43.094Z,15.27
2022-11-26T02:02:48.799Z,14.02
2022-11-26T02:05:57.011Z,13.90
2022-11-26T02:09:02.470Z,15.13
2022-11-26T02:12:07.535Z,15.52
2022-11-26T02:15:15.979Z,13.98
2022-11-26T02:18:22.243Z,12.35
2022-11-26T02:21:29.469Z,15.73
2022-11-26T02:24:46.296Z,14.30
2022-11-26T02:28:04.534Z,15.85
2022-11-26T02:34:19.174Z,18.85
2022-11-26T02:37:26.131Z,13.00
2022-11-26T02:40:31.394Z,14.52
2022-11-26T02:43:37.631Z,12.18
2022-11-26T02:46:44.100Z,10.80
2022-11-26T02:49:52.667Z,11.15
2022-11-26T02:56:05.410Z,10.80
2022-11-26T02:59:10.888Z,10.80
2022-11-26T03:02:19.105Z,10.85
2022-11-26T03:08:32.282Z,10.20
2022-11-26T03:11:37.905Z,11.50
2022-11-26T03:14:42.978Z,11.27
2022-11-26T03:17:48.199Z,10.30
2022-11-26T03:20:53.696Z,12.10
2022-11-26T03:24:01.459Z,11.20
2022-11-26T03:27:06.949Z,12.13
2022-11-26T03:30:12.633Z,8.70
2022-11-26T03:33:17.854Z,10.80
2022-11-26T03:36:23.023Z,8.23
2022-11-26T03:39:30.892Z,7.78
2022-11-26T03:42:36.032Z,9.15
2022-11-26T03:45:41.213Z,8.52
2022-11-26T03:48:46.383Z,8.32
2022-11-26T03:51:51.437Z,6.30
2022-11-26T03:54:59.277Z,7.32
2022-11-26T03:58:04.523Z,8.43
2022-11-26T04:01:11.075Z,8.55
2022-11-26T04:04:19.374Z,6.80
2022-11-26T04:10:32.021Z,6.18
2022-11-26T04:13:37.171Z,7.03
2022-11-26T04:16:42.628Z,8.27
2022-11-26T04:19:47.945Z,6.05
2022-11-26T04:22:53.281Z,9.80
2022-11-26T04:26:00.860Z,7.97
2022-11-26T04:29:06.544Z,6.80
2022-11-26T04:32:11.760Z,6.28
2022-11-26T04:35:17.153Z,8.10
2022-11-26T04:38:25.697Z,7.70
2022-11-26T04:41:33.923Z,8.13
2022-11-26T04:44:39.125Z,5.22
2022-11-26T04:47:44.445Z,7.97
2022-11-26T04:50:49.631Z,6.15
2022-11-26T04:53:55.894Z,8.38
2022-11-26T04:57:04.097Z,6.25
2022-11-26T05:00:10.977Z,8.55
2022-11-26T05:03:16.281Z,6.90
2022-11-26T05:06:21.455Z,6.40
2022-11-26T05:09:26.648Z,4.10
2022-11-26T05:12:34.557Z,4.90
2022-11-26T05:15:39.801Z,4.40
2022-11-26T05:18:44.895Z,5.55
2022-11-26T05:21:50.145Z,4.10
2022-11-26T05:24:55.526Z,5.72
2022-11-26T05:28:03.103Z,3.50
2022-11-26T05:31:08.392Z,3.85
2022-11-26T05:34:13.553Z,5.57
2022-11-26T05:37:18.937Z,5.25
2022-11-26T05:40:23.969Z,7.32
2022-11-26T05:43:31.738Z,7.57
2022-11-26T05:46:37.099Z,5.50
2022-11-26T05:49:42.248Z,4.38
2022-11-26T05:52:47.418Z,5.93
2022-11-26T05:55:52.412Z,6.13
2022-11-26T05:59:00.199Z,4.70
2022-11-26T06:02:05.584Z,4.93
2022-11-26T06:05:11.104Z,8.25
2022-11-26T06:08:16.278Z,6.10
2022-11-26T06:11:21.493Z,5.80
2022-11-26T06:14:29.116Z,8.10
2022-11-26T06:17:34.529Z,7.63
2022-11-26T06:20:40.017Z,6.43
2022-11-26T06:23:52.875Z,8.23
2022-11-26T06:27:01.289Z,7.07
2022-11-26T06:30:10.195Z,8.73
2022-11-26T06:33:15.435Z,5.80
2022-11-26T06:36:20.491Z,8.43
2022-11-26T06:39:25.659Z,8.68
2022-11-26T06:42:30.887Z,8.00
2022-11-26T06:45:38.797Z,7.60
2022-11-26T06:48:43.806Z,5.88
2022-11-26T06:51:49.195Z,7.97
2022-11-26T06:54:54.826Z,8.90
2022-11-26T06:57:59.929Z,9.00
2022-11-26T07:01:13.422Z,8.73
2022-11-26T07:04:18.464Z,10.13
2022-11-26T07:07:23.863Z,14.23
2022-11-26T07:10:29.220Z,11.63
2022-11-26T07:13:34.538Z,8.77
2022-11-26T07:16:42.152Z,9.05
2022-11-26T07:19:47.565Z,10.82
2022-11-26T07:22:53.432Z,10.02
2022-11-26T07:26:01.454Z,10.05
2022-11-26T07:29:06.819Z,10.13
2022-11-26T07:32:14.585Z,9.25
2022-11-26T07:35:19.774Z,13.30
2022-11-26T07:38:24.916Z,10.18
2022-11-26T07:41:30.955Z,9.40
2022-11-26T07:44:36.804Z,11.13
2022-11-26T07:47:44.855Z,9.40
2022-11-26T07:50:50.127Z,12.20
2022-11-26T07:53:55.744Z,10.95
2022-11-26T07:57:06.701Z,9.02
2022-11-26T08:00:14.856Z,10.13
2022-11-26T08:03:22.673Z,10.07
2022-11-26T08:06:28.792Z,10.93
2022-11-26T08:09:34.325Z,10.15
2022-11-26T08:12:39.736Z,9.95
2022-11-26T08:15:45.048Z,10.68
2022-11-26T08:18:55.878Z,12.63
2022-11-26T08:22:01.540Z,13.88
2022-11-26T08:25:07.454Z,10.73
2022-11-26T08:28:15.326Z,12.35
2022-11-26T08:31:21.242Z,10.48
2022-11-26T08:34:30.696Z,11.98
2022-11-26T08:37:42.391Z,9.85
2022-11-26T08:40:49.684Z,12.73
2022-11-26T08:47:20.939Z,10.52
2022-11-26T08:50:44.369Z,9.05
2022-11-26T08:53:52.703Z,16.23
2022-11-26T08:56:59.250Z,12.98
2022-11-26T09:00:08.942Z,10.63
2022-11-26T09:03:14.833Z,14.15
2022-11-26T09:06:21.244Z,14.35
2022-11-26T09:09:29.458Z,14.18
2022-11-26T09:15:40.436Z,14.68
2022-11-26T09:18:45.928Z,11.48
2022-11-26T09:21:51.074Z,11.63
2022-11-26T09:24:58.971Z,11.55
2022-11-26T09:28:05.021Z,9.73
2022-11-26T09:31:10.654Z,11.00
2022-11-26T09:34:16.080Z,11.15
2022-11-26T09:37:21.296Z,11.77
2022-11-26T09:40:32.959Z,12.45
2022-11-26T09:43:44.175Z,13.02
2022-11-26T09:47:11.111Z,12.38
2022-11-26T09:50:23.973Z,12.10
2022-11-26T09:53:30.701Z,12.73
2022-11-26T09:56:40.063Z,9.63
2022-11-26T09:59:45.232Z,12.25
2022-11-26T10:02:50.573Z,12.75
2022-11-26T10:05:59.732Z,12.85
2022-11-26T10:09:22.798Z,11.68
2022-11-26T10:12:50.551Z,13.35
2022-11-26T10:16:04.734Z,10.35
2022-11-26T10:19:14.983Z,13.48
2022-11-26T10:22:24.383Z,11.63
2022-11-26T10:25:31.706Z,11.73
2022-11-26T10:28:42.014Z,12.70
2022-11-26T10:31:49.179Z,10.90
2022-11-26T10:34:55.473Z,18.77
2022-11-26T10:38:01.250Z,13.32
2022-11-26T10:41:06.392Z,11.52
2022-11-26T10:44:35.182Z,12.60
2022-11-26T10:47:43.377Z,14.60
2022-11-26T10:50:58.014Z,14.57
2022-11-26T10:54:04.314Z,13.63
2022-11-26T10:57:15.457Z,15.45
2022-11-26T11:00:34.874Z,12.68
2022-11-26T11:07:30.910Z,12.32
2022-11-26T11:10:36.236Z,12.05
2022-11-26T11:13:45.155Z,14.98
2022-11-26T11:16:50.329Z,12.85
2022-11-26T11:19:58.768Z,14.35
2022-11-26T11:23:08.769Z,14.95
2022-11-26T11:26:18.858Z,16.58
2022-11-26T11:29:35.703Z,18.13
2022-11-26T11:32:41.788Z,20.30
2022-11-26T11:35:59.776Z,14.80
2022-11-26T11:39:05.213Z,16.23
2022-11-26T11:42:18.091Z,17.35
2022-11-26T11:45:25.548Z,16.85
2022-11-26T11:48:35.855Z,13.82
2022-11-26T11:51:46.682Z,14.38
2022-11-26T11:54:57.112Z,14.77
2022-11-26T11:58:10.223Z,21.17
2022-11-26T12:01:20.371Z,18.25
2022-11-26T12:04:36.958Z,19.58
2022-11-26T12:07:46.432Z,16.80
2022-11-26T12:10:56.431Z,15.73
2022-11-26T12:14:03.973Z,19.92
2022-11-26T12:17:11.263Z,19.27
2022-11-26T12:20:20.141Z,15.23
2022-11-26T12:23:31.410Z,14.98
2022-11-26T12:26:37.845Z,16.58
2022-11-26T12:29:44.989Z,19.92
2022-11-26T12:32:52.598Z,16.70
2022-11-26T12:35:59.395Z,14.73
2022-11-26T12:39:15.248Z,17.30
2022-11-26T12:42:22.191Z,18.80
2022-11-26T12:45:37.007Z,15.85
2022-11-26T12:48:46.480Z,14.98
2022-11-26T12:52:02.425Z,15.43
2022-11-26T12:55:14.123Z,19.65
2022-11-26T12:58:21.868Z,15.75
2022-11-26T13:01:27.321Z,13.18
2022-11-26T13:04:39.940Z,16.27
2022-11-26T13:07:51.451Z,15.80
2022-11-26T13:11:09.943Z,15.85
2022-11-26T13:14:20.760Z,17.88
2022-11-26T13:17:29.461Z,15.48
2022-11-26T13:20:41.568Z,18.30
2022-11-26T13:23:53.972Z,18.02
2022-11-26T13:27:12.389Z,22.33
2022-11-26T13:33:37.223Z,19.73
2022-11-26T13:36:57.325Z,18.13
2022-11-26T13:40:19.984Z,16.88
2022-11-26T13:43:42.911Z,18.65
2022-11-26T13:46:52.959Z,18.30
2022-11-26T13:50:01.390Z,18.58
2022-11-26T13:53:09.423Z,18.35
2022-11-26T13:56:16.466Z,20.15
2022-11-26T13:59:35.182Z,19.60
2022-11-26T14:03:05.664Z,19.58
2022-11-26T14:13:33.183Z,18.20
2022-11-26T14:17:06.822Z,20.77
2022-11-26T14:20:13.510Z,18.70
2022-11-26T14:23:33.275Z,19.23
2022-11-26T14:26:41.303Z,21.35
2022-11-26T14:29:46.744Z,19.90
2022-11-26T14:32:57.479Z,18.02
2022-11-26T14:36:02.730Z,22.15
2022-11-26T14:39:09.736Z,20.20
2022-11-26T14:42:20.688Z,19.45
2022-11-26T14:45:26.621Z,20.10
2022-11-26T14:48:32.569Z,16.25
2022-11-26T14:51:38.046Z,15.85
2022-11-26T14:54:43.399Z,19.75
2022-11-26T14:57:52.673Z,17.23
2022-11-26T15:01:08.050Z,21.88
2022-11-26T15:04:24.343Z,17.63
2022-11-26T15:07:30.712Z,19.60
2022-11-26T15:10:36.749Z,20.30
2022-11-26T15:13:46.122Z,20.05
2022-11-26T15:16:55.761Z,19.48
2022-11-26T15:20:03.101Z,17.73
2022-11-26T15:23:15.524Z,21.05
2022-11-26T15:26:24.189Z,20.75
2022-11-26T15:29:36.907Z,16.40
2022-11-26T15:32:42.074Z,18.48
2022-11-26T15:35:47.140Z,20.27
2022-11-26T15:39:03.298Z,18.17
2022-11-26T15:42:10.583Z,22.70
2022-11-26T15:45:20.246Z,15.57
2022-11-26T15:48:50.349Z,17.80
2022-11-26T15:51:56.326Z,18.35
2022-11-26T15:55:18.539Z,18.98
2022-11-26T15:58:25.222Z,19.90
2022-11-26T16:01:34.807Z,19.75
2022-11-26T16:04:42.018Z,18.17
2022-11-26T16:07:59.282Z,19.03
2022-11-26T16:11:09.692Z,23.05
2022-11-26T16:14:31.893Z,20.55
2022-11-26T16:17:39.767Z,19.85
2022-11-26T16:20:45.457Z,18.52
2022-11-26T16:23:54.884Z,21.67
2022-11-26T16:27:01.128Z,25.45
2022-11-26T16:30:09.893Z,20.85
2022-11-26T16:33:17.823Z,19.73
2022-11-26T16:36:25.040Z,19.63
2022-11-26T16:39:31.458Z,23.90
2022-11-26T16:42:38.013Z,22.58
2022-11-26T16:45:43.326Z,27.02
2022-11-26T16:48:51.236Z,22.98
2022-11-26T16:51:57.135Z,19.42
2022-11-26T16:55:02.582Z,24.48
2022-11-26T16:58:08.581Z,23.15
2022-11-26T17:01:13.749Z,23.70
2022-11-26T17:04:23.067Z,24.38
2022-11-26T17:07:29.366Z,24.05
2022-11-26T17:10:34.678Z,26.17
2022-11-26T17:13:39.703Z,23.15
2022-11-26T17:16:45.112Z,21.85
2022-11-26T17:19:53.361Z,22.48
2022-11-26T17:22:58.420Z,26.50
2022-11-26T17:26:04.242Z,24.63
2022-11-26T17:29:09.391Z,27.63
2022-11-26T17:32:14.838Z,22.60
2022-11-26T17:35:22.848Z,22.55
2022-11-26T17:38:28.101Z,23.70
2022-11-26T17:41:33.571Z,23.58
2022-11-26T17:44:38.551Z,27.55
2022-11-26T17:47:44.046Z,29.17
2022-11-26T17:50:52.042Z,29.52
2022-11-26T17:53:57.700Z,27.45
2022-11-26T17:57:02.803Z,24.00
2022-11-26T18:00:09.141Z,21.38
2022-11-26T18:03:14.523Z,24.85
2022-11-26T18:06:24.829Z,25.50
2022-11-26T18:09:30.186Z,21.30
2022-11-26T18:12:35.290Z,26.92
2022-11-26T18:15:40.941Z,23.60
2022-11-26T18:18:45.995Z,24.98
2022-11-26T18:21:54.612Z,27.65
2022-11-26T18:24:59.870Z,22.95
2022-11-26T18:28:05.042Z,24.63
2022-11-26T18:31:10.567Z,26.60
2022-11-26T18:34:15.877Z,26.65
2022-11-26T18:37:23.789Z,32.80
2022-11-26T18:40:29.330Z,28.45
2022-11-26T18:43:34.968Z,27.00
2022-11-26T18:46:40.448Z,38.45
2022-11-26T18:49:47.665Z,32.88
2022-11-26T18:52:58.856Z,32.60
2022-11-26T18:56:04.545Z,27.95
2022-11-26T18:59:10.063Z,28.92
2022-11-26T19:02:15.426Z,28.40
2022-11-26T19:05:20.959Z,26.33
2022-11-26T19:08:28.924Z,28.75
2022-11-26T19:11:34.352Z,26.80
2022-11-26T19:14:39.808Z,30.10
2022-11-26T19:17:45.231Z,29.85
2022-11-26T19:20:51.633Z,30.40
2022-11-26T19:24:01.541Z,28.95
2022-11-26T19:27:06.684Z,29.48
2022-11-26T19:30:12.482Z,24.55
2022-11-26T19:33:17.541Z,27.35
2022-11-26T19:36:22.568Z,27.23
2022-11-26T19:39:30.401Z,29.23
2022-11-26T19:42:35.644Z,28.52
2022-11-26T19:45:41.047Z,24.83
2022-11-26T19:48:47.742Z,24.70
2022-11-26T19:51:53.023Z,25.98
2022-11-26T19:55:01.354Z,29.00
2022-11-26T19:58:08.410Z,25.38
2022-11-26T20:01:15.585Z,25.80
2022-11-26T20:04:21.170Z,23.20
2022-11-26T20:07:47.300Z,26.63
2022-11-26T20:10:55.208Z,27.02
2022-11-26T20:14:01.202Z,22.85
2022-11-26T20:17:06.482Z,27.63
2022-11-26T20:20:12.277Z,27.05
2022-11-26T20:23:17.869Z,24.83
2022-11-26T20:26:28.266Z,24.55
2022-11-26T20:29:33.287Z,23.92
2022-11-26T20:32:39.220Z,24.15
2022-11-26T20:35:44.897Z,28.42
2022-11-26T20:38:50.086Z,24.48
2022-11-26T20:41:58.067Z,26.02
2022-11-26T20:45:03.553Z,24.50
2022-11-26T20:48:09.068Z,24.20
2022-11-26T20:51:14.956Z,23.42
2022-11-26T20:54:20.188Z,27.00
2022-11-26T20:57:27.982Z,24.25
2022-11-26T21:00:33.051Z,25.27
2022-11-26T21:03:38.099Z,25.75
2022-11-26T21:06:44.730Z,26.63
2022-11-26T21:09:49.935Z,23.80
2022-11-26T21:12:57.792Z,26.73
2022-11-26T21:16:04.842Z,23.83
2022-11-26T21:19:09.898Z,27.17
2022-11-26T21:22:15.268Z,26.95
2022-11-26T21:25:20.547Z,22.67
2022-11-26T21:28:28.303Z,28.60
2022-11-26T21:31:34.311Z,23.63
2022-11-26T21:34:39.304Z,23.85
2022-11-26T21:37:44.673Z,25.23
2022-11-26T21:40:49.840Z,28.30
2022-11-26T21:43:59.862Z,21.48
2022-11-26T21:47:05.673Z,21.48
2022-11-26T21:50:12.077Z,25.48
2022-11-26T21:53:17.287Z,25.10
2022-11-26T21:56:23.436Z,22.80
2022-11-26T21:59:31.251Z,23.52
2022-11-26T22:02:36.636Z,25.73
2022-11-26T22:05:42.024Z,27.77
2022-11-26T22:08:47.705Z,23.48
2022-11-26T22:11:52.882Z,25.27
2022-11-26T22:15:00.756Z,25.08
2022-11-26T22:18:06.033Z,26.38
2022-11-26T22:21:12.906Z,24.13
2022-11-26T22:24:18.679Z,23.90
2022-11-26T22:27:24.116Z,23.33
2022-11-26T22:30:32.230Z,22.50
2022-11-26T22:33:37.408Z,22.58
2022-11-26T22:36:43.583Z,21.17
2022-11-26T22:39:53.699Z,21.80
2022-11-26T22:42:59.213Z,22.42
2022-11-26T22:46:09.153Z,27.20
2022-11-26T22:49:15.891Z,21.40
2022-11-26T22:52:21.563Z,20.05
2022-11-26T22:55:26.779Z,19.90
2022-11-26T22:58:32.735Z,20.92
2022-11-26T23:01:40.432Z,18.13
2022-11-26T23:04:45.746Z,20.42
2022-11-26T23:07:50.973Z,19.58
2022-11-26T23:10:56.268Z,20.40
2022-11-26T23:14:02.289Z,18.33
2022-11-26T23:17:10.001Z,19.90
2022-11-26T23:20:15.777Z,24.27
2022-11-26T23:23:21.203Z,17.42
2022-11-26T23:26:27.868Z,22.52
2022-11-26T23:29:33.249Z,19.42
2022-11-26T23:32:41.086Z,17.90
2022-11-26T23:35:46.434Z,19.33
2022-11-26T23:38:51.725Z,19.88
2022-11-26T23:41:56.918Z,22.50
2022-11-26T23:45:01.940Z,23.30
2022-11-26T23:48:11.321Z,20.10
2022-11-26T23:51:17.216Z,16.67
2022-11-26T23:54:22.685Z,18.08
2022-11-26T23:57:27.717Z,22.60
